sensor_id;sensor_type;location;lat;lon;timestamp;P1;durP1;ratioP1;P2;durP2;ratioP2
70924;SDS011;58577;52.410;13.242;2022-12-18T00:00:42;51.08;;;17.70;;
70924;SDS011;58577;52.410;13.242;2022-12-18T00:03:29;47.85;;;14.55;;
70924;SDS011;58577;52.410;13.242;2022-12-18T00:06:15;46.80;;;15.48;;
70924;SDS011;58577;52.410;13.242;2022-12-18T00:09:02;40.30;;;13.02;;
70924;SDS011;58577;52.410;13.242;2022-12-18T00:11:48;50.17;;;15.63;;
70924;SDS011;58577;52.410;13.242;2022-12-18T00:14:34;47.97;;;17.27;;
70924;SDS011;58577;52.410;13.242;2022-12-18T00:17:21;47.78;;;15.75;;
70924;SDS011;58577;52.410;13.242;2022-12-18T00:20:07;47.35;;;17.67;;
70924;SDS011;58577;52.410;13.242;2022-12-18T00:22:53;47.30;;;14.40;;
70924;SDS011;58577;52.410;13.242;2022-12-18T00:25:39;49.83;;;15.13;;
70924;SDS011;58577;52.410;13.242;2022-12-18T00:28:25;61.20;;;17.75;;
70924;SDS011;58577;52.410;13.242;2022-12-18T00:31:21;44.58;;;15.85;;
70924;SDS011;58577;52.410;13.242;2022-12-18T00:34:11;54.95;;;15.52;;
70924;SDS011;58577;52.410;13.242;2022-12-18T00:36:59;44.90;;;14.70;;
70924;SDS011;58577;52.410;13.242;2022-12-18T00:39:45;48.28;;;15.52;;
70924;SDS011;58577;52.410;13.242;2022-12-18T00:42:30;47.95;;;13.35;;
70924;SDS011;58577;52.410;13.242;2022-12-18T00:45:35;57.40;;;16.33;;
70924;SDS011;58577;52.410;13.242;2022-12-18T00:48:21;45.03;;;14.50;;
70924;SDS011;58577;52.410;13.242;2022-12-18T00:51:07;54.05;;;14.45;;
70924;SDS011;58577;52.410;13.242;2022-12-18T00:53:54;58.35;;;15.73;;
70924;SDS011;58577;52.410;13.242;2022-12-18T00:56:40;50.63;;;14.77;;
70924;SDS011;58577;52.410;13.242;2022-12-18T00:59:26;40.03;;;12.10;;
70924;SDS011;58577;52.410;13.242;2022-12-18T01:02:12;42.83;;;12.43;;
70924;SDS011;58577;52.410;13.242;2022-12-18T01:04:58;43.65;;;14.05;;
70924;SDS011;58577;52.410;13.242;2022-12-18T01:07:44;51.28;;;13.73;;
70924;SDS011;58577;52.410;13.242;2022-12-18T01:10:30;49.58;;;13.73;;
70924;SDS011;58577;52.410;13.242;2022-12-18T01:13:16;45.42;;;13.45;;
70924;SDS011;58577;52.410;13.242;2022-12-18T01:16:02;45.10;;;13.27;;
70924;SDS011;58577;52.410;13.242;2022-12-18T01:18:51;45.38;;;14.30;;
70924;SDS011;58577;52.410;13.242;2022-12-18T01:21:38;45.55;;;15.50;;
70924;SDS011;58577;52.410;13.242;2022-12-18T01:24:24;44.60;;;12.43;;
70924;SDS011;58577;52.410;13.242;2022-12-18T01:27:10;41.00;;;14.80;;
70924;SDS011;58577;52.410;13.242;2022-12-18T01:29:56;41.13;;;12.77;;
70924;SDS011;58577;52.410;13.242;2022-12-18T01:32:42;41.95;;;13.13;;
70924;SDS011;58577;52.410;13.242;2022-12-18T01:35:28;48.13;;;14.45;;
70924;SDS011;58577;52.410;13.242;2022-12-18T01:38:14;47.97;;;14.65;;
70924;SDS011;58577;52.410;13.242;2022-12-18T01:41:00;38.38;;;13.32;;
70924;SDS011;58577;52.410;13.242;2022-12-18T01:43:56;48.00;;;14.75;;
70924;SDS011;58577;52.410;13.242;2022-12-18T01:46:43;45.63;;;14.40;;
70924;SDS011;58577;52.410;13.242;2022-12-18T01:49:29;46.75;;;16.27;;
70924;SDS011;58577;52.410;13.242;2022-12-18T01:52:14;45.13;;;14.48;;
70924;SDS011;58577;52.410;13.242;2022-12-18T01:55:03;49.10;;;14.90;;
70924;SDS011;58577;52.410;13.242;2022-12-18T01:57:55;46.65;;;14.02;;
70924;SDS011;58577;52.410;13.242;2022-12-18T02:00:42;43.67;;;12.75;;
70924;SDS011;58577;52.410;13.242;2022-12-18T02:03:28;49.63;;;14.07;;
70924;SDS011;58577;52.410;13.242;2022-12-18T02:09:15;46.00;;;14.60;;
70924;SDS011;58577;52.410;13.242;2022-12-18T02:12:16;53.03;;;15.52;;
70924;SDS011;58577;52.410;13.242;2022-12-18T02:15:09;43.08;;;13.88;;
70924;SDS011;58577;52.410;13.242;2022-12-18T02:18:08;39.78;;;11.30;;
70924;SDS011;58577;52.410;13.242;2022-12-18T02:21:02;51.80;;;15.38;;
70924;SDS011;58577;52.410;13.242;2022-12-18T02:27:15;50.80;;;14.32;;
70924;SDS011;58577;52.410;13.242;2022-12-18T02:30:01;39.67;;;13.25;;
70924;SDS011;58577;52.410;13.242;2022-12-18T02:32:50;41.45;;;12.75;;
70924;SDS011;58577;52.410;13.242;2022-12-18T02:35:38;40.58;;;12.45;;
70924;SDS011;58577;52.410;13.242;2022-12-18T02:38:27;39.95;;;13.15;;
70924;SDS011;58577;52.410;13.242;2022-12-18T02:41:18;42.20;;;12.45;;
70924;SDS011;58577;52.410;13.242;2022-12-18T02:44:11;35.25;;;10.90;;
70924;SDS011;58577;52.410;13.242;2022-12-18T02:46:59;50.15;;;15.18;;
70924;SDS011;58577;52.410;13.242;2022-12-18T03:04:38;42.05;;;14.55;;
70924;SDS011;58577;52.410;13.242;2022-12-18T03:07:49;44.08;;;15.00;;
70924;SDS011;58577;52.410;13.242;2022-12-18T03:10:44;48.28;;;14.55;;
70924;SDS011;58577;52.410;13.242;2022-12-18T03:13:43;45.85;;;15.02;;
70924;SDS011;58577;52.410;13.242;2022-12-18T03:16:34;42.50;;;13.15;;
70924;SDS011;58577;52.410;13.242;2022-12-18T03:19:24;54.97;;;15.65;;
70924;SDS011;58577;52.410;13.242;2022-12-18T03:22:17;55.63;;;16.30;;
70924;SDS011;58577;52.410;13.242;2022-12-18T03:27:58;52.17;;;17.25;;
70924;SDS011;58577;52.410;13.242;2022-12-18T03:30:46;47.70;;;16.58;;
70924;SDS011;58577;52.410;13.242;2022-12-18T03:33:39;55.47;;;17.77;;
70924;SDS011;58577;52.410;13.242;2022-12-18T03:36:29;58.38;;;16.77;;
70924;SDS011;58577;52.410;13.242;2022-12-18T03:39:16;60.10;;;17.75;;
70924;SDS011;58577;52.410;13.242;2022-12-18T03:45:18;54.45;;;17.70;;
70924;SDS011;58577;52.410;13.242;2022-12-18T03:48:34;51.33;;;16.33;;
70924;SDS011;58577;52.410;13.242;2022-12-18T03:51:33;50.97;;;16.17;;
70924;SDS011;58577;52.410;13.242;2022-12-18T03:54:28;46.15;;;14.38;;
70924;SDS011;58577;52.410;13.242;2022-12-18T03:57:26;47.90;;;15.02;;
70924;SDS011;58577;52.410;13.242;2022-12-18T04:00:17;53.58;;;18.10;;
70924;SDS011;58577;52.410;13.242;2022-12-18T04:03:22;53.15;;;16.63;;
70924;SDS011;58577;52.410;13.242;2022-12-18T04:06:09;52.25;;;18.08;;
70924;SDS011;58577;52.410;13.242;2022-12-18T04:08:58;49.03;;;16.75;;
70924;SDS011;58577;52.410;13.242;2022-12-18T04:11:46;52.92;;;15.65;;
70924;SDS011;58577;52.410;13.242;2022-12-18T04:14:34;47.85;;;14.68;;
70924;SDS011;58577;52.410;13.242;2022-12-18T04:17:22;52.00;;;17.00;;
70924;SDS011;58577;52.410;13.242;2022-12-18T04:20:09;50.58;;;15.98;;
70924;SDS011;58577;52.410;13.242;2022-12-18T04:22:58;49.90;;;16.40;;
70924;SDS011;58577;52.410;13.242;2022-12-18T04:25:45;62.80;;;16.92;;
70924;SDS011;58577;52.410;13.242;2022-12-18T04:28:37;52.35;;;16.60;;
70924;SDS011;58577;52.410;13.242;2022-12-18T04:31:23;53.47;;;15.80;;
70924;SDS011;58577;52.410;13.242;2022-12-18T04:34:09;60.25;;;18.38;;
70924;SDS011;58577;52.410;13.242;2022-12-18T04:37:00;48.88;;;15.88;;
70924;SDS011;58577;52.410;13.242;2022-12-18T04:39:46;48.72;;;16.00;;
70924;SDS011;58577;52.410;13.242;2022-12-18T04:42:40;46.85;;;15.20;;
70924;SDS011;58577;52.410;13.242;2022-12-18T04:45:26;56.13;;;17.05;;
70924;SDS011;58577;52.410;13.242;2022-12-18T04:48:11;46.88;;;14.45;;
70924;SDS011;58577;52.410;13.242;2022-12-18T04:50:57;47.72;;;16.25;;
70924;SDS011;58577;52.410;13.242;2022-12-18T04:53:43;48.38;;;15.40;;
70924;SDS011;58577;52.410;13.242;2022-12-18T04:56:30;47.03;;;14.23;;
70924;SDS011;58577;52.410;13.242;2022-12-18T04:59:17;55.75;;;16.60;;
70924;SDS011;58577;52.410;13.242;2022-12-18T05:02:03;54.35;;;16.38;;
70924;SDS011;58577;52.410;13.242;2022-12-18T05:04:48;55.65;;;17.30;;
70924;SDS011;58577;52.410;13.242;2022-12-18T05:07:34;50.97;;;16.88;;
70924;SDS011;58577;52.410;13.242;2022-12-18T05:10:20;45.15;;;13.18;;
70924;SDS011;58577;52.410;13.242;2022-12-18T05:13:06;43.38;;;15.15;;
70924;SDS011;58577;52.410;13.242;2022-12-18T05:15:52;40.92;;;14.40;;
70924;SDS011;58577;52.410;13.242;2022-12-18T05:18:39;46.03;;;14.60;;
70924;SDS011;58577;52.410;13.242;2022-12-18T05:21:25;44.90;;;16.30;;
70924;SDS011;58577;52.410;13.242;2022-12-18T05:24:11;39.00;;;13.73;;
70924;SDS011;58577;52.410;13.242;2022-12-18T05:26:57;45.78;;;16.23;;
70924;SDS011;58577;52.410;13.242;2022-12-18T05:29:43;44.38;;;14.40;;
70924;SDS011;58577;52.410;13.242;2022-12-18T05:32:28;41.22;;;13.80;;
70924;SDS011;58577;52.410;13.242;2022-12-18T05:35:14;53.60;;;16.85;;
70924;SDS011;58577;52.410;13.242;2022-12-18T05:38:00;47.83;;;15.23;;
70924;SDS011;58577;52.410;13.242;2022-12-18T05:40:47;39.70;;;15.32;;
70924;SDS011;58577;52.410;13.242;2022-12-18T05:43:34;45.45;;;14.90;;
70924;SDS011;58577;52.410;13.242;2022-12-18T05:46:21;35.95;;;12.85;;
70924;SDS011;58577;52.410;13.242;2022-12-18T05:49:07;40.83;;;13.55;;
70924;SDS011;58577;52.410;13.242;2022-12-18T05:51:53;44.35;;;15.02;;
70924;SDS011;58577;52.410;13.242;2022-12-18T05:54:39;47.47;;;17.95;;
70924;SDS011;58577;52.410;13.242;2022-12-18T05:57:25;39.30;;;13.73;;
70924;SDS011;58577;52.410;13.242;2022-12-18T06:00:11;34.08;;;13.30;;
70924;SDS011;58577;52.410;13.242;2022-12-18T06:03:00;37.20;;;14.10;;
70924;SDS011;58577;52.410;13.242;2022-12-18T06:05:46;35.83;;;12.13;;
70924;SDS011;58577;52.410;13.242;2022-12-18T06:08:32;39.65;;;15.18;;
70924;SDS011;58577;52.410;13.242;2022-12-18T06:11:19;42.47;;;13.70;;
70924;SDS011;58577;52.410;13.242;2022-12-18T06:14:06;40.72;;;13.85;;
70924;SDS011;58577;52.410;13.242;2022-12-18T06:16:52;41.10;;;13.88;;
70924;SDS011;58577;52.410;13.242;2022-12-18T06:19:38;41.88;;;13.73;;
70924;SDS011;58577;52.410;13.242;2022-12-18T06:22:24;35.17;;;11.70;;
70924;SDS011;58577;52.410;13.242;2022-12-18T06:25:10;37.17;;;13.77;;
70924;SDS011;58577;52.410;13.242;2022-12-18T06:27:56;34.92;;;12.98;;
70924;SDS011;58577;52.410;13.242;2022-12-18T06:30:46;48.63;;;15.93;;
70924;SDS011;58577;52.410;13.242;2022-12-18T06:33:32;45.67;;;14.25;;
70924;SDS011;58577;52.410;13.242;2022-12-18T06:36:18;42.08;;;14.07;;
70924;SDS011;58577;52.410;13.242;2022-12-18T06:39:05;46.22;;;16.27;;
70924;SDS011;58577;52.410;13.242;2022-12-18T06:41:51;41.10;;;14.57;;
70924;SDS011;58577;52.410;13.242;2022-12-18T06:44:37;35.67;;;11.65;;
70924;SDS011;58577;52.410;13.242;2022-12-18T06:47:22;40.60;;;14.82;;
70924;SDS011;58577;52.410;13.242;2022-12-18T06:50:09;48.15;;;15.95;;
70924;SDS011;58577;52.410;13.242;2022-12-18T06:52:55;39.10;;;13.93;;
70924;SDS011;58577;52.410;13.242;2022-12-18T06:55:44;38.50;;;14.02;;
70924;SDS011;58577;52.410;13.242;2022-12-18T06:58:30;44.42;;;14.57;;
70924;SDS011;58577;52.410;13.242;2022-12-18T07:01:16;47.53;;;13.93;;
70924;SDS011;58577;52.410;13.242;2022-12-18T07:04:02;38.53;;;13.45;;
70924;SDS011;58577;52.410;13.242;2022-12-18T07:06:47;45.90;;;15.35;;
70924;SDS011;58577;52.410;13.242;2022-12-18T07:09:33;43.67;;;15.88;;
70924;SDS011;58577;52.410;13.242;2022-12-18T07:12:19;48.20;;;15.80;;
70924;SDS011;58577;52.410;13.242;2022-12-18T07:15:05;44.38;;;13.55;;
70924;SDS011;58577;52.410;13.242;2022-12-18T07:17:52;51.53;;;15.93;;
70924;SDS011;58577;52.410;13.242;2022-12-18T07:20:38;47.65;;;15.20;;
70924;SDS011;58577;52.410;13.242;2022-12-18T07:23:24;41.80;;;13.98;;
70924;SDS011;58577;52.410;13.242;2022-12-18T07:26:11;39.80;;;14.30;;
70924;SDS011;58577;52.410;13.242;2022-12-18T07:28:58;46.65;;;14.93;;
70924;SDS011;58577;52.410;13.242;2022-12-18T07:31:44;44.50;;;13.93;;
70924;SDS011;58577;52.410;13.242;2022-12-18T07:34:30;43.42;;;13.93;;
70924;SDS011;58577;52.410;13.242;2022-12-18T07:37:16;46.90;;;15.30;;
70924;SDS011;58577;52.410;13.242;2022-12-18T07:40:02;37.55;;;12.10;;
70924;SDS011;58577;52.410;13.242;2022-12-18T07:42:47;41.60;;;13.57;;
70924;SDS011;58577;52.410;13.242;2022-12-18T07:45:33;49.67;;;12.77;;
70924;SDS011;58577;52.410;13.242;2022-12-18T07:48:19;50.17;;;17.00;;
70924;SDS011;58577;52.410;13.242;2022-12-18T07:51:05;46.70;;;17.63;;
70924;SDS011;58577;52.410;13.242;2022-12-18T07:53:52;49.35;;;16.30;;
70924;SDS011;58577;52.410;13.242;2022-12-18T07:56:37;64.47;;;20.52;;
70924;SDS011;58577;52.410;13.242;2022-12-18T07:59:23;71.53;;;19.38;;
70924;SDS011;58577;52.410;13.242;2022-12-18T08:02:09;75.13;;;21.85;;
70924;SDS011;58577;52.410;13.242;2022-12-18T08:04:55;62.15;;;18.33;;
70924;SDS011;58577;52.410;13.242;2022-12-18T08:07:41;63.30;;;19.95;;
70924;SDS011;58577;52.410;13.242;2022-12-18T08:10:27;63.55;;;20.23;;
70924;SDS011;58577;52.410;13.242;2022-12-18T08:13:13;53.08;;;19.05;;
70924;SDS011;58577;52.410;13.242;2022-12-18T08:16:02;52.97;;;17.38;;
70924;SDS011;58577;52.410;13.242;2022-12-18T08:21:37;43.58;;;15.25;;
70924;SDS011;58577;52.410;13.242;2022-12-18T08:24:25;40.75;;;14.02;;
70924;SDS011;58577;52.410;13.242;2022-12-18T08:27:11;41.58;;;15.77;;
70924;SDS011;58577;52.410;13.242;2022-12-18T08:29:58;46.80;;;15.10;;
70924;SDS011;58577;52.410;13.242;2022-12-18T08:32:43;38.92;;;13.70;;
70924;SDS011;58577;52.410;13.242;2022-12-18T08:35:29;47.05;;;16.00;;
70924;SDS011;58577;52.410;13.242;2022-12-18T08:38:15;40.90;;;13.77;;
70924;SDS011;58577;52.410;13.242;2022-12-18T08:41:02;46.10;;;15.90;;
70924;SDS011;58577;52.410;13.242;2022-12-18T08:43:52;43.80;;;14.15;;
70924;SDS011;58577;52.410;13.242;2022-12-18T08:46:56;40.97;;;14.85;;
70924;SDS011;58577;52.410;13.242;2022-12-18T08:49:42;38.85;;;13.65;;
70924;SDS011;58577;52.410;13.242;2022-12-18T08:52:28;39.58;;;14.45;;
70924;SDS011;58577;52.410;13.242;2022-12-18T08:55:17;43.95;;;15.77;;
70924;SDS011;58577;52.410;13.242;2022-12-18T08:58:03;46.15;;;14.80;;
70924;SDS011;58577;52.410;13.242;2022-12-18T09:00:49;44.33;;;14.55;;
70924;SDS011;58577;52.410;13.242;2022-12-18T09:03:39;44.92;;;14.82;;
70924;SDS011;58577;52.410;13.242;2022-12-18T09:06:28;48.37;;;15.23;;
70924;SDS011;58577;52.410;13.242;2022-12-18T09:09:14;41.03;;;14.90;;
70924;SDS011;58577;52.410;13.242;2022-12-18T09:12:02;40.60;;;14.20;;
70924;SDS011;58577;52.410;13.242;2022-12-18T09:14:48;33.05;;;13.07;;
70924;SDS011;58577;52.410;13.242;2022-12-18T09:17:34;39.65;;;13.05;;
70924;SDS011;58577;52.410;13.242;2022-12-18T09:20:20;43.20;;;14.05;;
70924;SDS011;58577;52.410;13.242;2022-12-18T09:23:07;38.30;;;14.35;;
70924;SDS011;58577;52.410;13.242;2022-12-18T09:25:59;40.92;;;12.65;;
70924;SDS011;58577;52.410;13.242;2022-12-18T09:28:47;38.83;;;12.77;;
70924;SDS011;58577;52.410;13.242;2022-12-18T09:31:33;44.50;;;15.13;;
70924;SDS011;58577;52.410;13.242;2022-12-18T09:34:19;39.83;;;13.75;;
70924;SDS011;58577;52.410;13.242;2022-12-18T09:37:09;35.47;;;14.32;;
70924;SDS011;58577;52.410;13.242;2022-12-18T09:39:58;38.55;;;14.18;;
70924;SDS011;58577;52.410;13.242;2022-12-18T09:42:44;38.35;;;14.10;;
70924;SDS011;58577;52.410;13.242;2022-12-18T09:45:41;40.78;;;14.88;;
70924;SDS011;58577;52.410;13.242;2022-12-18T09:48:32;43.10;;;14.70;;
70924;SDS011;58577;52.410;13.242;2022-12-18T09:51:22;37.30;;;12.25;;
70924;SDS011;58577;52.410;13.242;2022-12-18T09:54:19;33.70;;;12.25;;
70924;SDS011;58577;52.410;13.242;2022-12-18T09:57:17;41.53;;;14.23;;
70924;SDS011;58577;52.410;13.242;2022-12-18T10:00:15;43.20;;;14.75;;
70924;SDS011;58577;52.410;13.242;2022-12-18T10:03:11;42.30;;;15.48;;
70924;SDS011;58577;52.410;13.242;2022-12-18T10:12:09;42.00;;;12.57;;
70924;SDS011;58577;52.410;13.242;2022-12-18T10:15:32;37.50;;;13.88;;
70924;SDS011;58577;52.410;13.242;2022-12-18T10:18:35;42.70;;;14.93;;
70924;SDS011;58577;52.410;13.242;2022-12-18T10:22:10;43.30;;;14.10;;
70924;SDS011;58577;52.410;13.242;2022-12-18T10:28:12;35.35;;;13.63;;
70924;SDS011;58577;52.410;13.242;2022-12-18T10:31:00;40.92;;;16.02;;
70924;SDS011;58577;52.410;13.242;2022-12-18T10:33:45;40.65;;;14.88;;
70924;SDS011;58577;52.410;13.242;2022-12-18T10:36:31;38.38;;;13.85;;
70924;SDS011;58577;52.410;13.242;2022-12-18T10:39:21;36.47;;;13.35;;
70924;SDS011;58577;52.410;13.242;2022-12-18T10:42:18;40.72;;;14.02;;
70924;SDS011;58577;52.410;13.242;2022-12-18T10:45:09;39.22;;;15.20;;
70924;SDS011;58577;52.410;13.242;2022-12-18T10:48:03;42.75;;;14.85;;
70924;SDS011;58577;52.410;13.242;2022-12-18T10:50:49;41.50;;;15.60;;
70924;SDS011;58577;52.410;13.242;2022-12-18T10:53:44;35.00;;;11.75;;
70924;SDS011;58577;52.410;13.242;2022-12-18T10:56:48;38.08;;;14.38;;
70924;SDS011;58577;52.410;13.242;2022-12-18T10:59:35;33.35;;;11.43;;
70924;SDS011;58577;52.410;13.242;2022-12-18T11:02:39;40.55;;;14.00;;
70924;SDS011;58577;52.410;13.242;2022-12-18T11:05:31;38.78;;;14.55;;
70924;SDS011;58577;52.410;13.242;2022-12-18T11:08:22;37.13;;;14.30;;
70924;SDS011;58577;52.410;13.242;2022-12-18T11:11:15;33.38;;;12.20;;
70924;SDS011;58577;52.410;13.242;2022-12-18T11:14:07;38.55;;;14.02;;
70924;SDS011;58577;52.410;13.242;2022-12-18T11:17:00;39.05;;;14.65;;
70924;SDS011;58577;52.410;13.242;2022-12-18T11:19:52;37.25;;;12.55;;
70924;SDS011;58577;52.410;13.242;2022-12-18T11:23:03;37.30;;;12.15;;
70924;SDS011;58577;52.410;13.242;2022-12-18T11:25:55;33.83;;;12.70;;
70924;SDS011;58577;52.410;13.242;2022-12-18T11:31:28;36.97;;;13.07;;
70924;SDS011;58577;52.410;13.242;2022-12-18T11:34:19;38.53;;;13.65;;
70924;SDS011;58577;52.410;13.242;2022-12-18T11:37:12;37.63;;;14.18;;
70924;SDS011;58577;52.410;13.242;2022-12-18T11:43:18;37.22;;;13.18;;
70924;SDS011;58577;52.410;13.242;2022-12-18T11:49:22;35.65;;;13.65;;
70924;SDS011;58577;52.410;13.242;2022-12-18T11:52:20;43.53;;;16.05;;
70924;SDS011;58577;52.410;13.242;2022-12-18T11:58:37;36.10;;;13.88;;
70924;SDS011;58577;52.410;13.242;2022-12-18T12:01:39;38.22;;;14.57;;
70924;SDS011;58577;52.410;13.242;2022-12-18T12:04:46;40.38;;;14.65;;
70924;SDS011;58577;52.410;13.242;2022-12-18T12:14:09;33.55;;;12.07;;
70924;SDS011;58577;52.410;13.242;2022-12-18T12:20:33;32.47;;;12.02;;
70924;SDS011;58577;52.410;13.242;2022-12-18T12:30:04;31.77;;;10.93;;
70924;SDS011;58577;52.410;13.242;2022-12-18T12:35:55;32.55;;;12.25;;
70924;SDS011;58577;52.410;13.242;2022-12-18T12:38:57;31.83;;;12.60;;
70924;SDS011;58577;52.410;13.242;2022-12-18T12:41:46;33.47;;;12.75;;
70924;SDS011;58577;52.410;13.242;2022-12-18T12:44:54;36.05;;;13.75;;
70924;SDS011;58577;52.410;13.242;2022-12-18T12:47:42;33.97;;;14.20;;
70924;SDS011;58577;52.410;13.242;2022-12-18T12:50:33;33.58;;;13.10;;
70924;SDS011;58577;52.410;13.242;2022-12-18T12:53:26;33.50;;;13.93;;
70924;SDS011;58577;52.410;13.242;2022-12-18T12:56:17;30.50;;;11.35;;
70924;SDS011;58577;52.410;13.242;2022-12-18T12:59:15;34.90;;;13.32;;
70924;SDS011;58577;52.410;13.242;2022-12-18T13:09:09;32.60;;;13.27;;
70924;SDS011;58577;52.410;13.242;2022-12-18T13:11:55;34.00;;;12.90;;
70924;SDS011;58577;52.410;13.242;2022-12-18T13:15:16;27.40;;;10.93;;
70924;SDS011;58577;52.410;13.242;2022-12-18T13:18:11;30.00;;;12.13;;
70924;SDS011;58577;52.410;13.242;2022-12-18T13:24:30;25.42;;;10.63;;
70924;SDS011;58577;52.410;13.242;2022-12-18T13:44:53;33.08;;;12.77;;
70924;SDS011;58577;52.410;13.242;2022-12-18T13:47:39;30.05;;;12.05;;
70924;SDS011;58577;52.410;13.242;2022-12-18T13:50:28;34.15;;;13.80;;
70924;SDS011;58577;52.410;13.242;2022-12-18T13:53:18;33.50;;;13.52;;
70924;SDS011;58577;52.410;13.242;2022-12-18T13:56:08;36.03;;;13.65;;
70924;SDS011;58577;52.410;13.242;2022-12-18T13:59:11;34.15;;;12.70;;
70924;SDS011;58577;52.410;13.242;2022-12-18T14:02:19;27.15;;;12.38;;
70924;SDS011;58577;52.410;13.242;2022-12-18T14:08:20;30.50;;;11.37;;
70924;SDS011;58577;52.410;13.242;2022-12-18T14:11:06;30.08;;;12.00;;
70924;SDS011;58577;52.410;13.242;2022-12-18T14:13:52;35.45;;;14.25;;
70924;SDS011;58577;52.410;13.242;2022-12-18T14:16:38;31.83;;;13.15;;
70924;SDS011;58577;52.410;13.242;2022-12-18T14:19:30;32.55;;;13.30;;
70924;SDS011;58577;52.410;13.242;2022-12-18T14:22:25;39.30;;;18.50;;
70924;SDS011;58577;52.410;13.242;2022-12-18T14:25:25;41.03;;;14.82;;
70924;SDS011;58577;52.410;13.242;2022-12-18T14:28:14;32.00;;;13.23;;
70924;SDS011;58577;52.410;13.242;2022-12-18T14:31:01;41.08;;;16.10;;
70924;SDS011;58577;52.410;13.242;2022-12-18T14:33:53;47.05;;;19.05;;
70924;SDS011;58577;52.410;13.242;2022-12-18T14:36:41;45.08;;;21.63;;
70924;SDS011;58577;52.410;13.242;2022-12-18T14:39:51;48.03;;;22.10;;
70924;SDS011;58577;52.410;13.242;2022-12-18T14:42:42;47.58;;;18.02;;
70924;SDS011;58577;52.410;13.242;2022-12-18T14:45:32;60.90;;;21.27;;
70924;SDS011;58577;52.410;13.242;2022-12-18T14:48:36;55.38;;;25.17;;
70924;SDS011;58577;52.410;13.242;2022-12-18T14:51:23;59.53;;;22.10;;
70924;SDS011;58577;52.410;13.242;2022-12-18T14:54:15;58.88;;;22.63;;
70924;SDS011;58577;52.410;13.242;2022-12-18T14:59:52;60.50;;;19.27;;
70924;SDS011;58577;52.410;13.242;2022-12-18T15:02:38;62.65;;;21.30;;
70924;SDS011;58577;52.410;13.242;2022-12-18T15:05:30;80.78;;;32.60;;
70924;SDS011;58577;52.410;13.242;2022-12-18T15:08:31;64.47;;;28.33;;
70924;SDS011;58577;52.410;13.242;2022-12-18T15:17:21;68.63;;;26.95;;
70924;SDS011;58577;52.410;13.242;2022-12-18T15:20:10;64.50;;;21.90;;
70924;SDS011;58577;52.410;13.242;2022-12-18T15:22:59;61.97;;;20.90;;
70924;SDS011;58577;52.410;13.242;2022-12-18T15:53:11;42.47;;;18.38;;
70924;SDS011;58577;52.410;13.242;2022-12-18T15:55:58;47.53;;;17.75;;
70924;SDS011;58577;52.410;13.242;2022-12-18T15:59:02;48.42;;;21.23;;
70924;SDS011;58577;52.410;13.242;2022-12-18T16:01:50;44.88;;;19.88;;
70924;SDS011;58577;52.410;13.242;2022-12-18T16:04:42;41.28;;;18.30;;
70924;SDS011;58577;52.410;13.242;2022-12-18T16:07:29;45.03;;;20.70;;
70924;SDS011;58577;52.410;13.242;2022-12-18T16:10:15;47.47;;;21.83;;
70924;SDS011;58577;52.410;13.242;2022-12-18T16:13:00;41.22;;;17.52;;
70924;SDS011;58577;52.410;13.242;2022-12-18T16:15:46;41.17;;;15.32;;
70924;SDS011;58577;52.410;13.242;2022-12-18T16:18:35;34.20;;;14.98;;
70924;SDS011;58577;52.410;13.242;2022-12-18T16:21:20;34.15;;;14.10;;
70924;SDS011;58577;52.410;13.242;2022-12-18T16:24:14;39.63;;;15.98;;
70924;SDS011;58577;52.410;13.242;2022-12-18T16:27:02;44.80;;;20.85;;
70924;SDS011;58577;52.410;13.242;2022-12-18T16:29:48;43.78;;;18.15;;
70924;SDS011;58577;52.410;13.242;2022-12-18T16:32:34;39.28;;;17.75;;
70924;SDS011;58577;52.410;13.242;2022-12-18T16:35:20;34.83;;;14.73;;
70924;SDS011;58577;52.410;13.242;2022-12-18T16:38:06;35.55;;;14.52;;
70924;SDS011;58577;52.410;13.242;2022-12-18T16:40:52;34.45;;;15.07;;
70924;SDS011;58577;52.410;13.242;2022-12-18T16:43:56;36.42;;;14.77;;
70924;SDS011;58577;52.410;13.242;2022-12-18T16:46:43;34.05;;;15.75;;
70924;SDS011;58577;52.410;13.242;2022-12-18T16:49:46;38.75;;;15.77;;
70924;SDS011;58577;52.410;13.242;2022-12-18T16:52:42;38.53;;;17.00;;
70924;SDS011;58577;52.410;13.242;2022-12-18T16:55:32;41.70;;;18.58;;
70924;SDS011;58577;52.410;13.242;2022-12-18T16:58:18;39.65;;;17.30;;
70924;SDS011;58577;52.410;13.242;2022-12-18T17:01:07;35.85;;;16.42;;
70924;SDS011;58577;52.410;13.242;2022-12-18T17:03:55;41.80;;;18.25;;
70924;SDS011;58577;52.410;13.242;2022-12-18T17:06:45;44.88;;;18.77;;
70924;SDS011;58577;52.410;13.242;2022-12-18T17:09:36;44.53;;;19.85;;
70924;SDS011;58577;52.410;13.242;2022-12-18T17:12:25;42.88;;;19.80;;
70924;SDS011;58577;52.410;13.242;2022-12-18T17:15:13;34.38;;;17.33;;
70924;SDS011;58577;52.410;13.242;2022-12-18T17:18:04;39.85;;;18.48;;
70924;SDS011;58577;52.410;13.242;2022-12-18T17:20:54;36.13;;;17.75;;
70924;SDS011;58577;52.410;13.242;2022-12-18T17:23:51;46.17;;;19.52;;
70924;SDS011;58577;52.410;13.242;2022-12-18T17:26:40;45.65;;;20.00;;
70924;SDS011;58577;52.410;13.242;2022-12-18T17:29:26;37.80;;;16.92;;
70924;SDS011;58577;52.410;13.242;2022-12-18T17:32:12;40.17;;;17.15;;
70924;SDS011;58577;52.410;13.242;2022-12-18T17:35:02;40.92;;;17.20;;
70924;SDS011;58577;52.410;13.242;2022-12-18T17:37:48;37.88;;;16.98;;
70924;SDS011;58577;52.410;13.242;2022-12-18T17:40:41;40.58;;;17.48;;
70924;SDS011;58577;52.410;13.242;2022-12-18T17:43:32;40.88;;;17.52;;
70924;SDS011;58577;52.410;13.242;2022-12-18T17:46:48;38.50;;;16.48;;
70924;SDS011;58577;52.410;13.242;2022-12-18T17:49:36;43.25;;;19.27;;
70924;SDS011;58577;52.410;13.242;2022-12-18T17:52:23;40.00;;;18.05;;
70924;SDS011;58577;52.410;13.242;2022-12-18T17:55:09;42.15;;;17.95;;
70924;SDS011;58577;52.410;13.242;2022-12-18T17:57:54;40.08;;;16.63;;
70924;SDS011;58577;52.410;13.242;2022-12-18T18:00:40;41.67;;;17.55;;
70924;SDS011;58577;52.410;13.242;2022-12-18T18:03:26;42.92;;;18.00;;
70924;SDS011;58577;52.410;13.242;2022-12-18T18:06:12;35.50;;;16.15;;
70924;SDS011;58577;52.410;13.242;2022-12-18T18:08:59;39.55;;;17.98;;
70924;SDS011;58577;52.410;13.242;2022-12-18T18:11:45;37.03;;;16.05;;
70924;SDS011;58577;52.410;13.242;2022-12-18T18:14:50;40.38;;;18.10;;
70924;SDS011;58577;52.410;13.242;2022-12-18T18:17:37;37.78;;;16.80;;
70924;SDS011;58577;52.410;13.242;2022-12-18T18:20:23;43.20;;;18.00;;
70924;SDS011;58577;52.410;13.242;2022-12-18T18:23:08;27.92;;;12.15;;
70924;SDS011;58577;52.410;13.242;2022-12-18T18:25:54;46.65;;;17.40;;
70924;SDS011;58577;52.410;13.242;2022-12-18T18:28:40;26.80;;;12.55;;
70924;SDS011;58577;52.410;13.242;2022-12-18T18:31:29;35.70;;;15.55;;
70924;SDS011;58577;52.410;13.242;2022-12-18T18:37:11;42.50;;;19.10;;
70924;SDS011;58577;52.410;13.242;2022-12-18T18:39:57;40.67;;;17.60;;